sensor_id;sensor_type;location;lat;lon;timestamp;temperature;humidity
16674;DHT22;8450;52.654;10.326;2023-11-19T00:01:31;4.90;99.90
16674;DHT22;8450;52.654;10.326;2023-11-19T00:03:58;4.90;99.90
16674;DHT22;8450;52.654;10.326;2023-11-19T00:06:23;4.90;99.90
16674;DHT22;8450;52.654;10.326;2023-11-19T00:08:51;4.90;99.90
16674;DHT22;8450;52.654;10.326;2023-11-19T00:11:16;4.90;99.90
16674;DHT22;8450;52.654;10.326;2023-11-19T00:13:42;4.90;99.90
16674;DHT22;8450;52.654;10.326;2023-11-19T00:16:08;4.90;99.90
16674;DHT22;8450;52.654;10.326;2023-11-19T00:18:35;4.90;99.90
16674;DHT22;8450;52.654;10.326;2023-11-19T00:21:01;4.90;99.90
16674;DHT22;8450;52.654;10.326;2023-11-19T00:23:28;4.90;99.90
16674;DHT22;8450;52.654;10.326;2023-11-19T00:25:53;4.90;99.90
16674;DHT22;8450;52.654;10.326;2023-11-19T00:28:19;5.00;99.90
16674;DHT22;8450;52.654;10.326;2023-11-19T00:30:44;5.00;99.90
16674;DHT22;8450;52.654;10.326;2023-11-19T00:33:10;4.90;99.90
16674;DHT22;8450;52.654;10.326;2023-11-19T00:35:35;5.00;99.90
16674;DHT22;8450;52.654;10.326;2023-11-19T00:38:01;4.90;99.90
16674;DHT22;8450;52.654;10.326;2023-11-19T00:40:28;4.90;99.90
16674;DHT22;8450;52.654;10.326;2023-11-19T00:42:54;5.00;99.90
16674;DHT22;8450;52.654;10.326;2023-11-19T00:45:19;5.00;99.90
16674;DHT22;8450;52.654;10.326;2023-11-19T00:47:45;4.90;99.90
16674;DHT22;8450;52.654;10.326;2023-11-19T00:50:10;5.00;99.90
16674;DHT22;8450;52.654;10.326;2023-11-19T00:52:37;4.90;99.90
16674;DHT22;8450;52.654;10.326;2023-11-19T00:55:04;5.00;99.90
16674;DHT22;8450;52.654;10.326;2023-11-19T00:57:30;5.00;99.90
16674;DHT22;8450;52.654;10.326;2023-11-19T01:00:01;5.00;99.90
16674;DHT22;8450;52.654;10.326;2023-11-19T01:02:26;4.90;99.90
16674;DHT22;8450;52.654;10.326;2023-11-19T01:04:52;5.00;99.90
16674;DHT22;8450;52.654;10.326;2023-11-19T01:07:18;5.00;99.90
16674;DHT22;8450;52.654;10.326;2023-11-19T01:09:43;5.00;99.90
16674;DHT22;8450;52.654;10.326;2023-11-19T01:12:09;5.00;99.90
16674;DHT22;8450;52.654;10.326;2023-11-19T01:14:35;5.00;99.90
16674;DHT22;8450;52.654;10.326;2023-11-19T01:17:02;5.00;99.90
16674;DHT22;8450;52.654;10.326;2023-11-19T01:19:27;5.00;99.90
16674;DHT22;8450;52.654;10.326;2023-11-19T01:21:54;5.00;99.90
16674;DHT22;8450;52.654;10.326;2023-11-19T01:24:21;5.00;99.90
16674;DHT22;8450;52.654;10.326;2023-11-19T01:26:46;5.00;99.90
16674;DHT22;8450;52.654;10.326;2023-11-19T01:29:13;5.00;99.90
16674;DHT22;8450;52.654;10.326;2023-11-19T01:31:42;5.00;99.90
16674;DHT22;8450;52.654;10.326;2023-11-19T01:34:08;5.00;99.90
16674;DHT22;8450;52.654;10.326;2023-11-19T01:36:34;5.00;99.90
16674;DHT22;8450;52.654;10.326;2023-11-19T01:39:00;5.10;99.90
16674;DHT22;8450;52.654;10.326;2023-11-19T01:41:25;5.10;99.90
16674;DHT22;8450;52.654;10.326;2023-11-19T01:43:51;5.10;99.90
16674;DHT22;8450;52.654;10.326;2023-11-19T01:46:17;5.10;99.90
16674;DHT22;8450;52.654;10.326;2023-11-19T01:48:44;5.10;99.90
16674;DHT22;8450;52.654;10.326;2023-11-19T01:51:12;5.10;99.90
16674;DHT22;8450;52.654;10.326;2023-11-19T01:53:38;5.10;99.90
16674;DHT22;8450;52.654;10.326;2023-11-19T01:56:05;5.10;99.90
16674;DHT22;8450;52.654;10.326;2023-11-19T01:58:35;5.10;99.90
16674;DHT22;8450;52.654;10.326;2023-11-19T02:01:01;5.20;99.90
16674;DHT22;8450;52.654;10.326;2023-11-19T02:03:31;5.20;99.90
16674;DHT22;8450;52.654;10.326;2023-11-19T02:05:58;5.20;99.90
16674;DHT22;8450;52.654;10.326;2023-11-19T02:08:24;5.20;99.90
16674;DHT22;8450;52.654;10.326;2023-11-19T02:10:51;5.20;99.90
16674;DHT22;8450;52.654;10.326;2023-11-19T02:13:18;5.20;99.90
16674;DHT22;8450;52.654;10.326;2023-11-19T02:15:44;5.30;99.90
16674;DHT22;8450;52.654;10.326;2023-11-19T02:18:23;5.30;99.90
16674;DHT22;8450;52.654;10.326;2023-11-19T02:20:53;5.30;99.90
16674;DHT22;8450;52.654;10.326;2023-11-19T02:23:20;5.30;99.90
16674;DHT22;8450;52.654;10.326;2023-11-19T02:28:19;5.30;99.90
16674;DHT22;8450;52.654;10.326;2023-11-19T02:30:44;5.30;99.90
16674;DHT22;8450;52.654;10.326;2023-11-19T02:33:10;5.30;99.90
16674;DHT22;8450;52.654;10.326;2023-11-19T02:35:36;5.30;99.90
16674;DHT22;8450;52.654;10.326;2023-11-19T02:38:01;5.40;99.90
16674;DHT22;8450;52.654;10.326;2023-11-19T02:40:29;5.40;99.90
16674;DHT22;8450;52.654;10.326;2023-11-19T02:42:55;5.40;99.90
16674;DHT22;8450;52.654;10.326;2023-11-19T02:45:24;5.40;99.90
16674;DHT22;8450;52.654;10.326;2023-11-19T02:47:51;5.50;99.90
16674;DHT22;8450;52.654;10.326;2023-11-19T02:50:18;5.50;99.90
16674;DHT22;8450;52.654;10.326;2023-11-19T02:52:52;5.50;99.90
16674;DHT22;8450;52.654;10.326;2023-11-19T02:55:18;5.50;99.90
16674;DHT22;8450;52.654;10.326;2023-11-19T02:57:44;5.60;99.90
16674;DHT22;8450;52.654;10.326;2023-11-19T03:00:20;5.60;99.90
16674;DHT22;8450;52.654;10.326;2023-11-19T03:02:51;5.60;99.90
16674;DHT22;8450;52.654;10.326;2023-11-19T03:05:25;5.60;99.90
16674;DHT22;8450;52.654;10.326;2023-11-19T03:07:52;5.70;99.90
16674;DHT22;8450;52.654;10.326;2023-11-19T03:10:17;5.80;99.90
16674;DHT22;8450;52.654;10.326;2023-11-19T03:12:44;5.80;99.90
16674;DHT22;8450;52.654;10.326;2023-11-19T03:15:11;5.90;99.90
16674;DHT22;8450;52.654;10.326;2023-11-19T03:17:41;6.00;99.90
16674;DHT22;8450;52.654;10.326;2023-11-19T03:20:11;6.00;99.90
16674;DHT22;8450;52.654;10.326;2023-11-19T03:22:41;6.10;99.90
16674;DHT22;8450;52.654;10.326;2023-11-19T03:25:10;6.20;99.90
16674;DHT22;8450;52.654;10.326;2023-11-19T03:27:36;6.10;99.90
16674;DHT22;8450;52.654;10.326;2023-11-19T03:30:03;6.20;99.90
16674;DHT22;8450;52.654;10.326;2023-11-19T03:32:31;6.30;99.90
16674;DHT22;8450;52.654;10.326;2023-11-19T03:34:58;6.30;99.90
16674;DHT22;8450;52.654;10.326;2023-11-19T03:37:25;6.30;99.90
16674;DHT22;8450;52.654;10.326;2023-11-19T03:39:51;6.30;99.90
16674;DHT22;8450;52.654;10.326;2023-11-19T03:42:19;6.30;99.90
16674;DHT22;8450;52.654;10.326;2023-11-19T03:44:46;6.40;99.90
16674;DHT22;8450;52.654;10.326;2023-11-19T03:47:11;6.40;99.90
16674;DHT22;8450;52.654;10.326;2023-11-19T03:49:37;6.40;99.90
16674;DHT22;8450;52.654;10.326;2023-11-19T03:52:03;6.40;99.90
16674;DHT22;8450;52.654;10.326;2023-11-19T03:54:28;6.40;99.90
16674;DHT22;8450;52.654;10.326;2023-11-19T03:56:54;6.40;99.90
16674;DHT22;8450;52.654;10.326;2023-11-19T03:59:20;6.40;99.90
16674;DHT22;8450;52.654;10.326;2023-11-19T04:01:46;6.50;99.90
16674;DHT22;8450;52.654;10.326;2023-11-19T04:04:11;6.70;99.90
16674;DHT22;8450;52.654;10.326;2023-11-19T04:06:37;6.90;99.90
16674;DHT22;8450;52.654;10.326;2023-11-19T04:09:03;7.00;99.90
16674;DHT22;8450;52.654;10.326;2023-11-19T04:11:29;6.90;99.90
16674;DHT22;8450;52.654;10.326;2023-11-19T04:13:54;7.00;99.90
16674;DHT22;8450;52.654;10.326;2023-11-19T04:16:26;7.10;99.90
16674;DHT22;8450;52.654;10.326;2023-11-19T04:18:53;7.10;99.90
16674;DHT22;8450;52.654;10.326;2023-11-19T04:21:19;7.00;99.90
16674;DHT22;8450;52.654;10.326;2023-11-19T04:23:44;7.20;99.90
16674;DHT22;8450;52.654;10.326;2023-11-19T04:26:10;7.10;99.90
16674;DHT22;8450;52.654;10.326;2023-11-19T04:28:35;7.10;99.90
16674;DHT22;8450;52.654;10.326;2023-11-19T04:31:01;7.20;99.90
16674;DHT22;8450;52.654;10.326;2023-11-19T04:33:28;7.10;99.90
16674;DHT22;8450;52.654;10.326;2023-11-19T04:35:54;7.30;99.90
16674;DHT22;8450;52.654;10.326;2023-11-19T04:38:19;7.30;99.90
16674;DHT22;8450;52.654;10.326;2023-11-19T04:40:45;7.40;99.90
16674;DHT22;8450;52.654;10.326;2023-11-19T04:43:10;7.30;99.90
16674;DHT22;8450;52.654;10.326;2023-11-19T04:45:36;7.40;99.90
16674;DHT22;8450;52.654;10.326;2023-11-19T04:48:02;7.40;99.90
16674;DHT22;8450;52.654;10.326;2023-11-19T04:50:27;7.50;99.90
16674;DHT22;8450;52.654;10.326;2023-11-19T04:52:53;7.40;99.90
16674;DHT22;8450;52.654;10.326;2023-11-19T04:55:19;7.50;99.90
16674;DHT22;8450;52.654;10.326;2023-11-19T04:57:45;7.60;99.90
16674;DHT22;8450;52.654;10.326;2023-11-19T05:00:11;7.70;99.90
16674;DHT22;8450;52.654;10.326;2023-11-19T05:02:37;7.80;99.90
16674;DHT22;8450;52.654;10.326;2023-11-19T05:05:03;7.80;99.90
16674;DHT22;8450;52.654;10.326;2023-11-19T05:07:30;7.60;99.90
16674;DHT22;8450;52.654;10.326;2023-11-19T05:09:55;7.80;99.90
16674;DHT22;8450;52.654;10.326;2023-11-19T05:12:21;7.70;99.90
16674;DHT22;8450;52.654;10.326;2023-11-19T05:14:48;7.80;99.90
16674;DHT22;8450;52.654;10.326;2023-11-19T05:17:19;7.80;99.90
16674;DHT22;8450;52.654;10.326;2023-11-19T05:19:45;7.90;99.90
16674;DHT22;8450;52.654;10.326;2023-11-19T05:22:10;7.80;99.90
16674;DHT22;8450;52.654;10.326;2023-11-19T05:24:36;8.00;99.90
16674;DHT22;8450;52.654;10.326;2023-11-19T05:27:02;8.00;99.90
16674;DHT22;8450;52.654;10.326;2023-11-19T05:29:28;7.90;99.90
16674;DHT22;8450;52.654;10.326;2023-11-19T05:31:54;8.00;99.90
16674;DHT22;8450;52.654;10.326;2023-11-19T05:34:20;8.00;99.90
16674;DHT22;8450;52.654;10.326;2023-11-19T05:36:46;8.20;99.90
16674;DHT22;8450;52.654;10.326;2023-11-19T05:39:12;8.10;99.90
16674;DHT22;8450;52.654;10.326;2023-11-19T05:41:37;8.00;99.90
16674;DHT22;8450;52.654;10.326;2023-11-19T05:44:03;8.00;99.90
16674;DHT22;8450;52.654;10.326;2023-11-19T05:46:29;8.10;99.90
16674;DHT22;8450;52.654;10.326;2023-11-19T05:48:54;8.20;99.90
16674;DHT22;8450;52.654;10.326;2023-11-19T05:51:20;8.10;99.90
16674;DHT22;8450;52.654;10.326;2023-11-19T05:53:45;8.10;99.90
16674;DHT22;8450;52.654;10.326;2023-11-19T05:56:11;8.10;99.90
16674;DHT22;8450;52.654;10.326;2023-11-19T05:58:37;8.30;99.90
16674;DHT22;8450;52.654;10.326;2023-11-19T06:01:03;8.40;99.90
16674;DHT22;8450;52.654;10.326;2023-11-19T06:03:29;8.30;99.90
16674;DHT22;8450;52.654;10.326;2023-11-19T06:05:55;8.30;99.90
16674;DHT22;8450;52.654;10.326;2023-11-19T06:08:21;8.30;99.90
16674;DHT22;8450;52.654;10.326;2023-11-19T06:10:46;8.30;99.90
16674;DHT22;8450;52.654;10.326;2023-11-19T06:13:13;8.30;99.90
16674;DHT22;8450;52.654;10.326;2023-11-19T06:15:41;8.40;99.90
16674;DHT22;8450;52.654;10.326;2023-11-19T06:18:07;8.40;99.90
16674;DHT22;8450;52.654;10.326;2023-11-19T06:20:33;8.40;99.90
16674;DHT22;8450;52.654;10.326;2023-11-19T06:22:59;8.50;99.90
16674;DHT22;8450;52.654;10.326;2023-11-19T06:25:25;8.50;99.90
16674;DHT22;8450;52.654;10.326;2023-11-19T06:27:51;8.40;99.90
16674;DHT22;8450;52.654;10.326;2023-11-19T06:30:17;8.40;99.90
16674;DHT22;8450;52.654;10.326;2023-11-19T06:32:43;8.40;99.90
16674;DHT22;8450;52.654;10.326;2023-11-19T06:35:09;8.50;99.90
16674;DHT22;8450;52.654;10.326;2023-11-19T06:37:35;8.40;99.90
16674;DHT22;8450;52.654;10.326;2023-11-19T06:40:01;8.50;99.90
16674;DHT22;8450;52.654;10.326;2023-11-19T06:42:27;8.50;99.90
16674;DHT22;8450;52.654;10.326;2023-11-19T06:44:53;8.40;99.90
16674;DHT22;8450;52.654;10.326;2023-11-19T06:47:18;8.40;99.90
16674;DHT22;8450;52.654;10.326;2023-11-19T06:49:44;8.40;99.90
16674;DHT22;8450;52.654;10.326;2023-11-19T06:52:10;8.40;99.90
16674;DHT22;8450;52.654;10.326;2023-11-19T06:54:38;8.40;99.90
16674;DHT22;8450;52.654;10.326;2023-11-19T06:57:04;8.30;99.90
16674;DHT22;8450;52.654;10.326;2023-11-19T06:59:30;8.20;99.90
16674;DHT22;8450;52.654;10.326;2023-11-19T07:01:56;8.10;99.90
16674;DHT22;8450;52.654;10.326;2023-11-19T07:04:22;8.20;99.90
16674;DHT22;8450;52.654;10.326;2023-11-19T07:06:47;8.20;99.90
16674;DHT22;8450;52.654;10.326;2023-11-19T07:09:14;8.20;99.90
16674;DHT22;8450;52.654;10.326;2023-11-19T07:11:40;8.20;99.90
16674;DHT22;8450;52.654;10.326;2023-11-19T07:14:07;8.30;99.90
16674;DHT22;8450;52.654;10.326;2023-11-19T07:16:34;8.20;99.90
16674;DHT22;8450;52.654;10.326;2023-11-19T07:19:03;8.30;99.90
16674;DHT22;8450;52.654;10.326;2023-11-19T07:21:29;8.40;99.90
16674;DHT22;8450;52.654;10.326;2023-11-19T07:23:55;8.50;99.90
16674;DHT22;8450;52.654;10.326;2023-11-19T07:26:22;8.40;99.90
16674;DHT22;8450;52.654;10.326;2023-11-19T07:28:49;8.20;99.90
16674;DHT22;8450;52.654;10.326;2023-11-19T07:31:14;8.20;99.90
16674;DHT22;8450;52.654;10.326;2023-11-19T07:33:40;8.60;99.90
16674;DHT22;8450;52.654;10.326;2023-11-19T07:36:10;8.40;99.90
16674;DHT22;8450;52.654;10.326;2023-11-19T07:38:36;8.70;99.90
16674;DHT22;8450;52.654;10.326;2023-11-19T07:41:02;8.70;99.90
16674;DHT22;8450;52.654;10.326;2023-11-19T07:43:27;8.80;99.90
16674;DHT22;8450;52.654;10.326;2023-11-19T07:45:53;8.70;99.90
16674;DHT22;8450;52.654;10.326;2023-11-19T07:48:18;8.80;99.90
16674;DHT22;8450;52.654;10.326;2023-11-19T07:50:49;9.00;99.90
16674;DHT22;8450;52.654;10.326;2023-11-19T07:53:19;9.10;99.90
16674;DHT22;8450;52.654;10.326;2023-11-19T07:55:45;9.40;99.90
16674;DHT22;8450;52.654;10.326;2023-11-19T07:58:11;9.50;99.90
16674;DHT22;8450;52.654;10.326;2023-11-19T08:00:37;9.70;99.90
16674;DHT22;8450;52.654;10.326;2023-11-19T08:03:04;9.80;99.90
16674;DHT22;8450;52.654;10.326;2023-11-19T08:05:31;9.80;99.90
16674;DHT22;8450;52.654;10.326;2023-11-19T08:07:56;9.80;99.90
16674;DHT22;8450;52.654;10.326;2023-11-19T08:10:22;9.80;99.90
16674;DHT22;8450;52.654;10.326;2023-11-19T08:12:48;9.90;99.90
16674;DHT22;8450;52.654;10.326;2023-11-19T08:15:14;10.00;99.90
16674;DHT22;8450;52.654;10.326;2023-11-19T08:17:40;10.00;99.90
16674;DHT22;8450;52.654;10.326;2023-11-19T08:20:06;10.00;99.90
16674;DHT22;8450;52.654;10.326;2023-11-19T08:22:38;9.80;99.90
16674;DHT22;8450;52.654;10.326;2023-11-19T08:25:07;10.00;99.90
16674;DHT22;8450;52.654;10.326;2023-11-19T08:27:33;10.10;99.90
16674;DHT22;8450;52.654;10.326;2023-11-19T08:29:59;10.00;99.90
16674;DHT22;8450;52.654;10.326;2023-11-19T08:32:27;9.90;99.90
16674;DHT22;8450;52.654;10.326;2023-11-19T08:34:54;10.10;99.90
16674;DHT22;8450;52.654;10.326;2023-11-19T08:37:20;10.00;99.90
16674;DHT22;8450;52.654;10.326;2023-11-19T08:39:48;10.10;99.90
16674;DHT22;8450;52.654;10.326;2023-11-19T08:42:14;10.10;99.90
16674;DHT22;8450;52.654;10.326;2023-11-19T08:44:39;10.20;99.90
16674;DHT22;8450;52.654;10.326;2023-11-19T08:47:09;10.20;99.90
16674;DHT22;8450;52.654;10.326;2023-11-19T08:49:35;10.30;99.90
16674;DHT22;8450;52.654;10.326;2023-11-19T08:52:00;10.40;99.90
16674;DHT22;8450;52.654;10.326;2023-11-19T08:54:26;10.50;99.90
16674;DHT22;8450;52.654;10.326;2023-11-19T08:56:51;10.40;99.90
16674;DHT22;8450;52.654;10.326;2023-11-19T08:59:17;10.30;99.90
16674;DHT22;8450;52.654;10.326;2023-11-19T09:01:44;10.30;99.90
16674;DHT22;8450;52.654;10.326;2023-11-19T09:04:10;10.50;99.90
16674;DHT22;8450;52.654;10.326;2023-11-19T09:06:36;10.50;99.90
16674;DHT22;8450;52.654;10.326;2023-11-19T09:09:01;10.40;99.90
16674;DHT22;8450;52.654;10.326;2023-11-19T09:11:28;10.60;99.90
16674;DHT22;8450;52.654;10.326;2023-11-19T09:13:54;10.70;99.90
16674;DHT22;8450;52.654;10.326;2023-11-19T09:16:19;10.80;99.90
16674;DHT22;8450;52.654;10.326;2023-11-19T09:18:45;10.80;99.90
16674;DHT22;8450;52.654;10.326;2023-11-19T09:21:11;10.90;99.90
16674;DHT22;8450;52.654;10.326;2023-11-19T09:23:37;11.10;99.90
16674;DHT22;8450;52.654;10.326;2023-11-19T09:26:09;11.10;99.90
16674;DHT22;8450;52.654;10.326;2023-11-19T09:28:37;11.00;99.90
16674;DHT22;8450;52.654;10.326;2023-11-19T09:31:02;11.00;99.90
16674;DHT22;8450;52.654;10.326;2023-11-19T09:33:31;11.00;99.90
16674;DHT22;8450;52.654;10.326;2023-11-19T09:35:57;11.00;99.90
16674;DHT22;8450;52.654;10.326;2023-11-19T09:38:23;10.90;99.90
16674;DHT22;8450;52.654;10.326;2023-11-19T09:40:48;10.80;99.90
16674;DHT22;8450;52.654;10.326;2023-11-19T09:43:15;10.90;99.90
16674;DHT22;8450;52.654;10.326;2023-11-19T09:45:48;10.90;99.90
16674;DHT22;8450;52.654;10.326;2023-11-19T09:48:18;11.00;99.90
16674;DHT22;8450;52.654;10.326;2023-11-19T09:50:46;11.00;99.90
16674;DHT22;8450;52.654;10.326;2023-11-19T09:53:12;11.10;99.90
16674;DHT22;8450;52.654;10.326;2023-11-19T09:55:38;11.10;99.90
16674;DHT22;8450;52.654;10.326;2023-11-19T09:58:03;11.00;99.90
16674;DHT22;8450;52.654;10.326;2023-11-19T10:00:30;10.90;99.90
16674;DHT22;8450;52.654;10.326;2023-11-19T10:02:57;10.90;99.90
16674;DHT22;8450;52.654;10.326;2023-11-19T10:05:24;11.10;99.90
16674;DHT22;8450;52.654;10.326;2023-11-19T10:07:50;11.10;99.90
16674;DHT22;8450;52.654;10.326;2023-11-19T10:10:16;11.10;99.90
16674;DHT22;8450;52.654;10.326;2023-11-19T10:12:45;10.90;99.90
16674;DHT22;8450;52.654;10.326;2023-11-19T10:15:19;10.90;99.90
16674;DHT22;8450;52.654;10.326;2023-11-19T10:17:46;10.90;99.90
16674;DHT22;8450;52.654;10.326;2023-11-19T10:20:11;10.90;99.90
16674;DHT22;8450;52.654;10.326;2023-11-19T10:22:37;10.90;99.90
16674;DHT22;8450;52.654;10.326;2023-11-19T10:25:04;10.90;99.90
16674;DHT22;8450;52.654;10.326;2023-11-19T10:27:29;10.80;99.90
16674;DHT22;8450;52.654;10.326;2023-11-19T10:29:59;10.80;99.90
16674;DHT22;8450;52.654;10.326;2023-11-19T10:32:25;10.70;99.90
16674;DHT22;8450;52.654;10.326;2023-11-19T10:34:50;10.70;99.90
16674;DHT22;8450;52.654;10.326;2023-11-19T10:37:29;10.70;99.90
16674;DHT22;8450;52.654;10.326;2023-11-19T10:39:57;10.60;99.90
16674;DHT22;8450;52.654;10.326;2023-11-19T10:42:23;10.60;99.90
16674;DHT22;8450;52.654;10.326;2023-11-19T10:44:49;10.60;99.90
16674;DHT22;8450;52.654;10.326;2023-11-19T10:47:15;10.50;99.90
16674;DHT22;8450;52.654;10.326;2023-11-19T10:49:43;10.50;99.90
16674;DHT22;8450;52.654;10.326;2023-11-19T10:52:12;10.50;99.90
16674;DHT22;8450;52.654;10.326;2023-11-19T10:54:44;10.50;99.90
16674;DHT22;8450;52.654;10.326;2023-11-19T10:57:12;10.50;99.90
16674;DHT22;8450;52.654;10.326;2023-11-19T10:59:42;10.60;99.90
16674;DHT22;8450;52.654;10.326;2023-11-19T11:02:12;10.60;99.90
16674;DHT22;8450;52.654;10.326;2023-11-19T11:04:41;10.70;99.90
16674;DHT22;8450;52.654;10.326;2023-11-19T11:07:09;10.70;99.90
16674;DHT22;8450;52.654;10.326;2023-11-19T11:09:35;10.70;99.90
16674;DHT22;8450;52.654;10.326;2023-11-19T11:12:01;10.70;99.90
16674;DHT22;8450;52.654;10.326;2023-11-19T11:14:27;10.70;99.90
16674;DHT22;8450;52.654;10.326;2023-11-19T11:16:53;10.70;99.90
16674;DHT22;8450;52.654;10.326;2023-11-19T11:19:19;10.80;99.90
16674;DHT22;8450;52.654;10.326;2023-11-19T11:21:49;10.90;99.90
16674;DHT22;8450;52.654;10.326;2023-11-19T11:27:00;11.00;99.90
16674;DHT22;8450;52.654;10.326;2023-11-19T11:29:37;11.00;99.90
16674;DHT22;8450;52.654;10.326;2023-11-19T11:32:30;11.00;99.90
16674;DHT22;8450;52.654;10.326;2023-11-19T11:35:12;11.00;99.90
16674;DHT22;8450;52.654;10.326;2023-11-19T11:37:50;11.00;99.90
16674;DHT22;8450;52.654;10.326;2023-11-19T11:40:18;11.00;99.90
16674;DHT22;8450;52.654;10.326;2023-11-19T11:42:44;11.10;99.90
16674;DHT22;8450;52.654;10.326;2023-11-19T11:45:11;11.10;99.90
16674;DHT22;8450;52.654;10.326;2023-11-19T11:50:17;11.00;99.90
16674;DHT22;8450;52.654;10.326;2023-11-19T11:55:28;11.00;99.90
16674;DHT22;8450;52.654;10.326;2023-11-19T11:57:54;10.90;99.90
16674;DHT22;8450;52.654;10.326;2023-11-19T12:00:30;10.90;99.90
16674;DHT22;8450;52.654;10.326;2023-11-19T12:02:56;11.00;99.90
16674;DHT22;8450;52.654;10.326;2023-11-19T12:05:22;11.10;99.90
16674;DHT22;8450;52.654;10.326;2023-11-19T12:07:57;11.20;99.90
16674;DHT22;8450;52.654;10.326;2023-11-19T12:10:24;11.20;99.90
16674;DHT22;8450;52.654;10.326;2023-11-19T12:12:53;11.20;99.90
16674;DHT22;8450;52.654;10.326;2023-11-19T12:15:18;11.30;99.90
16674;DHT22;8450;52.654;10.326;2023-11-19T12:17:51;11.30;99.90
16674;DHT22;8450;52.654;10.326;2023-11-19T12:20:18;11.30;99.90
16674;DHT22;8450;52.654;10.326;2023-11-19T12:22:45;11.40;99.90
16674;DHT22;8450;52.654;10.326;2023-11-19T12:25:12;11.40;99.90
16674;DHT22;8450;52.654;10.326;2023-11-19T12:27:43;11.40;99.90
16674;DHT22;8450;52.654;10.326;2023-11-19T12:30:09;11.40;99.90
16674;DHT22;8450;52.654;10.326;2023-11-19T12:32:39;11.40;99.90
16674;DHT22;8450;52.654;10.326;2023-11-19T12:35:05;11.40;99.90
16674;DHT22;8450;52.654;10.326;2023-11-19T12:37:31;11.50;99.90
16674;DHT22;8450;52.654;10.326;2023-11-19T12:39:57;11.50;99.90
16674;DHT22;8450;52.654;10.326;2023-11-19T12:42:36;11.40;99.90
16674;DHT22;8450;52.654;10.326;2023-11-19T12:45:02;11.50;99.90
16674;DHT22;8450;52.654;10.326;2023-11-19T12:47:29;11.50;99.90
16674;DHT22;8450;52.654;10.326;2023-11-19T12:49:56;11.60;99.90
16674;DHT22;8450;52.654;10.326;2023-11-19T12:52:22;11.70;99.90
16674;DHT22;8450;52.654;10.326;2023-11-19T12:54:49;11.60;99.90
16674;DHT22;8450;52.654;10.326;2023-11-19T12:57:15;11.50;99.90
16674;DHT22;8450;52.654;10.326;2023-11-19T12:59:41;11.50;99.90
16674;DHT22;8450;52.654;10.326;2023-11-19T13:02:06;11.40;99.90
16674;DHT22;8450;52.654;10.326;2023-11-19T13:04:33;11.50;99.90
16674;DHT22;8450;52.654;10.326;2023-11-19T13:06:59;11.50;99.90
16674;DHT22;8450;52.654;10.326;2023-11-19T13:09:28;11.60;99.90
16674;DHT22;8450;52.654;10.326;2023-11-19T13:11:55;11.70;99.90
16674;DHT22;8450;52.654;10.326;2023-11-19T13:14:22;11.70;99.90
16674;DHT22;8450;52.654;10.326;2023-11-19T13:16:47;11.70;99.90
16674;DHT22;8450;52.654;10.326;2023-11-19T13:19:17;11.70;99.90
16674;DHT22;8450;52.654;10.326;2023-11-19T13:21:45;11.60;99.90
16674;DHT22;8450;52.654;10.326;2023-11-19T13:24:12;11.60;99.90
16674;DHT22;8450;52.654;10.326;2023-11-19T13:26:38;11.60;99.90
16674;DHT22;8450;52.654;10.326;2023-11-19T13:29:04;11.50;99.90
16674;DHT22;8450;52.654;10.326;2023-11-19T13:31:29;11.50;99.90
16674;DHT22;8450;52.654;10.326;2023-11-19T13:33:55;11.40;99.90
16674;DHT22;8450;52.654;10.326;2023-11-19T13:36:22;11.30;99.90
16674;DHT22;8450;52.654;10.326;2023-11-19T13:38:47;11.30;99.90
16674;DHT22;8450;52.654;10.326;2023-11-19T13:41:13;11.40;99.90
16674;DHT22;8450;52.654;10.326;2023-11-19T13:43:39;11.30;99.90
16674;DHT22;8450;52.654;10.326;2023-11-19T13:46:05;11.30;99.90
16674;DHT22;8450;52.654;10.326;2023-11-19T13:48:31;11.40;99.90
16674;DHT22;8450;52.654;10.326;2023-11-19T13:50:57;11.30;99.90
16674;DHT22;8450;52.654;10.326;2023-11-19T13:53:23;11.30;99.90
16674;DHT22;8450;52.654;10.326;2023-11-19T13:55:49;11.30;99.90
16674;DHT22;8450;52.654;10.326;2023-11-19T13:58:15;11.40;99.90
16674;DHT22;8450;52.654;10.326;2023-11-19T14:00:41;11.30;99.90
16674;DHT22;8450;52.654;10.326;2023-11-19T14:03:08;11.30;99.90
16674;DHT22;8450;52.654;10.326;2023-11-19T14:05:35;11.20;99.90
16674;DHT22;8450;52.654;10.326;2023-11-19T14:08:01;11.10;99.90
16674;DHT22;8450;52.654;10.326;2023-11-19T14:10:27;11.00;99.90
16674;DHT22;8450;52.654;10.326;2023-11-19T14:12:52;11.00;99.90
16674;DHT22;8450;52.654;10.326;2023-11-19T14:15:18;11.00;99.90
16674;DHT22;8450;52.654;10.326;2023-11-19T14:17:44;10.80;99.90
16674;DHT22;8450;52.654;10.326;2023-11-19T14:20:10;10.80;99.90
16674;DHT22;8450;52.654;10.326;2023-11-19T14:22:40;10.70;99.90
16674;DHT22;8450;52.654;10.326;2023-11-19T14:25:06;10.80;99.90
16674;DHT22;8450;52.654;10.326;2023-11-19T14:27:39;10.80;99.90
16674;DHT22;8450;52.654;10.326;2023-11-19T14:30:06;10.80;99.90
16674;DHT22;8450;52.654;10.326;2023-11-19T14:32:32;10.80;99.90
16674;DHT22;8450;52.654;10.326;2023-11-19T14:34:58;10.80;99.90
16674;DHT22;8450;52.654;10.326;2023-11-19T14:37:24;10.80;99.90
16674;DHT22;8450;52.654;10.326;2023-11-19T14:39:49;10.70;99.90
16674;DHT22;8450;52.654;10.326;2023-11-19T14:42:16;10.60;99.90
16674;DHT22;8450;52.654;10.326;2023-11-19T14:44:42;10.60;99.90
16674;DHT22;8450;52.654;10.326;2023-11-19T14:47:08;10.60;99.90
16674;DHT22;8450;52.654;10.326;2023-11-19T14:49:36;10.60;99.90
16674;DHT22;8450;52.654;10.326;2023-11-19T14:52:03;10.60;99.90
16674;DHT22;8450;52.654;10.326;2023-11-19T14:54:29;10.60;99.90
16674;DHT22;8450;52.654;10.326;2023-11-19T14:56:55;10.60;99.90
16674;DHT22;8450;52.654;10.326;2023-11-19T14:59:20;10.50;99.90
16674;DHT22;8450;52.654;10.326;2023-11-19T15:01:46;10.50;99.90
16674;DHT22;8450;52.654;10.326;2023-11-19T15:04:11;10.40;99.90
16674;DHT22;8450;52.654;10.326;2023-11-19T15:06:37;10.50;99.90
16674;DHT22;8450;52.654;10.326;2023-11-19T15:09:04;10.40;99.90
16674;DHT22;8450;52.654;10.326;2023-11-19T15:11:29;10.50;99.90
16674;DHT22;8450;52.654;10.326;2023-11-19T15:13:55;10.50;99.90
16674;DHT22;8450;52.654;10.326;2023-11-19T15:16:21;10.50;99.90
16674;DHT22;8450;52.654;10.326;2023-11-19T15:19:00;10.50;99.90
16674;DHT22;8450;52.654;10.326;2023-11-19T15:21:29;10.50;99.90
16674;DHT22;8450;52.654;10.326;2023-11-19T15:23:55;10.50;99.90
16674;DHT22;8450;52.654;10.326;2023-11-19T15:26:21;10.50;99.90
16674;DHT22;8450;52.654;10.326;2023-11-19T15:28:47;10.50;99.90
16674;DHT22;8450;52.654;10.326;2023-11-19T15:31:12;10.50;99.90
16674;DHT22;8450;52.654;10.326;2023-11-19T15:33:40;10.50;99.90
16674;DHT22;8450;52.654;10.326;2023-11-19T15:36:06;10.40;99.90
16674;DHT22;8450;52.654;10.326;2023-11-19T15:38:36;10.30;99.90
16674;DHT22;8450;52.654;10.326;2023-11-19T15:41:02;10.30;99.90
16674;DHT22;8450;52.654;10.326;2023-11-19T15:43:30;10.30;99.90
16674;DHT22;8450;52.654;10.326;2023-11-19T15:45:56;10.10;99.90
16674;DHT22;8450;52.654;10.326;2023-11-19T15:48:22;10.00;99.90